Time;durP1;ratioP1;P1;durP2;ratioP2;P2;SDS_P1;SDS_P2;PMS_P1;PMS_P2;Temp;Humidity;BMP_temperature;BMP_pressure;BME280_temperature;BME280_humidity;BME280_pressure;Samples;Min_cycle;Max_cycle;Signal;HPM_P1;HPM_P2
2023/05/24 00:01:55;;;;;;;6.77;3.63;;;12.00;1.00;;;;;;4992443;28;20523;-80
2023/05/24 00:04:24;;;;;;;9.33;3.60;;;12.00;1.00;;;;;;4990131;28;20502;-79
2023/05/24 00:06:53;;;;;;;10.50;4.83;;;12.00;1.00;;;;;;4992913;28;20466;-79
2023/05/24 00:09:20;;;;;;;8.63;3.60;;;12.00;1.00;;;;;;4990791;28;20463;-79
2023/05/24 00:11:47;;;;;;;7.30;3.70;;;12.00;1.00;;;;;;4985567;28;20534;-78
2023/05/24 00:14:14;;;;;;;8.37;2.90;;;12.00;1.00;;;;;;4994934;28;20502;-79
2023/05/24 00:16:41;;;;;;;9.53;4.10;;;12.00;1.00;;;;;;4998713;28;20464;-79
2023/05/24 00:19:09;;;;;;;6.43;3.67;;;12.00;1.00;;;;;;4990015;28;20811;-80
2023/05/24 00:21:38;;;;;;;9.20;5.03;;;11.90;1.00;;;;;;4983672;28;20455;-79
2023/05/24 00:24:05;;;;;;;10.83;3.80;;;11.90;1.00;;;;;;4995021;28;20472;-80
2023/05/24 00:26:32;;;;;;;7.20;3.60;;;12.00;1.00;;;;;;5009248;28;21315;-79
2023/05/24 00:28:59;;;;;;;7.63;3.87;;;11.90;1.00;;;;;;5007384;28;20423;-79
2023/05/24 00:31:26;;;;;;;9.67;3.57;;;11.90;1.00;;;;;;5002704;28;20446;-79
2023/05/24 00:33:53;;;;;;;8.47;4.40;;;11.90;1.00;;;;;;4996098;28;20440;-78
2023/05/24 00:36:20;;;;;;;7.30;3.30;;;11.90;1.00;;;;;;5002044;28;20428;-78
2023/05/24 00:38:49;;;;;;;9.93;3.73;;;11.90;1.00;;;;;;4998970;28;20456;-80
2023/05/24 00:41:17;;;;;;;9.37;3.33;;;11.80;1.00;;;;;;4999217;28;20506;-79
2023/05/24 00:43:44;;;;;;;8.40;3.53;;;11.70;1.00;;;;;;4992723;28;20856;-79
2023/05/24 00:46:19;;;;;;;12.90;3.80;;;11.60;1.00;;;;;;5003066;28;20433;-79
2023/05/24 00:48:46;;;;;;;8.80;3.37;;;11.60;1.00;;;;;;5007758;28;20729;-79
2023/05/24 00:51:13;;;;;;;11.50;4.30;;;11.50;1.00;;;;;;4989013;28;20454;-79
2023/05/24 00:53:44;;;;;;;9.67;3.43;;;11.60;1.00;;;;;;5007899;28;20436;-79
2023/05/24 00:56:13;;;;;;;9.30;3.13;;;11.50;1.00;;;;;;4997369;28;21221;-79
2023/05/24 00:58:41;;;;;;;6.27;3.30;;;11.50;1.00;;;;;;4990128;28;21290;-79
2023/05/24 01:01:09;;;;;;;10.90;3.80;;;11.50;1.00;;;;;;4994836;28;21264;-79
2023/05/24 01:03:36;;;;;;;7.30;3.30;;;11.40;1.00;;;;;;4985283;28;20479;-79
2023/05/24 01:06:06;;;;;;;7.63;3.60;;;11.40;1.00;;;;;;4993322;28;20455;-79
2023/05/24 01:08:46;;;;;;;7.73;3.50;;;11.40;1.00;;;;;;4991996;28;20850;-80
2023/05/24 01:11:26;;;;;;;5.17;3.20;;;11.40;1.00;;;;;;4975996;28;20480;-79
2023/05/24 01:14:03;;;;;;;13.10;4.47;;;11.40;1.00;;;;;;4991067;28;20470;-79
2023/05/24 01:16:39;;;;;;;7.97;3.57;;;11.50;1.00;;;;;;4984349;28;20491;-79
2023/05/24 01:19:22;;;;;;;5.87;2.73;;;11.60;1.00;;;;;;4991414;28;20514;-79
2023/05/24 01:22:02;;;;;;;6.77;3.03;;;11.60;1.00;;;;;;4989544;28;20490;-79
2023/05/24 01:24:35;;;;;;;9.70;4.43;;;11.70;1.00;;;;;;4992656;28;20926;-80
2023/05/24 01:27:07;;;;;;;8.80;3.33;;;11.70;1.00;;;;;;4990976;28;20462;-79
2023/05/24 01:29:35;;;;;;;8.87;3.47;;;11.70;1.00;;;;;;4985707;28;20900;-80
2023/05/24 01:32:03;;;;;;;9.40;3.47;;;11.70;1.00;;;;;;4989005;28;21223;-78
2023/05/24 01:34:30;;;;;;;11.13;3.80;;;11.70;1.00;;;;;;4991027;28;20475;-78
2023/05/24 01:36:57;;;;;;;5.53;3.63;;;11.70;1.00;;;;;;4988943;28;20469;-79
2023/05/24 01:39:27;;;;;;;7.30;3.60;;;11.70;1.00;;;;;;4992261;28;20483;-79
2023/05/24 01:42:05;;;;;;;9.13;3.73;;;11.70;1.00;;;;;;4991620;28;20495;-79
2023/05/24 01:44:37;;;;;;;7.03;2.97;;;11.70;1.00;;;;;;4982398;28;20466;-79
2023/05/24 01:47:16;;;;;;;6.57;2.97;;;11.70;1.00;;;;;;4987948;28;20456;-79
2023/05/24 01:49:49;;;;;;;10.00;4.00;;;11.60;1.00;;;;;;4985011;28;21352;-79
2023/05/24 01:52:19;;;;;;;9.10;3.73;;;11.70;1.00;;;;;;4986049;28;20432;-79
2023/05/24 01:54:51;;;;;;;4.73;3.33;;;11.70;1.00;;;;;;4986013;28;20467;-79
2023/05/24 01:57:21;;;;;;;7.30;4.10;;;11.70;1.00;;;;;;4990611;28;20459;-80
2023/05/24 01:59:51;;;;;;;7.63;3.70;;;11.80;1.00;;;;;;4986877;28;20498;-80
2023/05/24 02:02:19;;;;;;;7.47;3.33;;;11.90;1.00;;;;;;4984957;28;20471;-79
2023/05/24 02:04:46;;;;;;;7.70;3.20;;;11.90;1.00;;;;;;4980199;28;20534;-80
2023/05/24 02:07:13;;;;;;;6.87;3.40;;;12.00;1.00;;;;;;4982446;28;22070;-80
2023/05/24 02:09:40;;;;;;;6.07;2.73;;;12.00;1.00;;;;;;4986860;28;20499;-79
2023/05/24 02:12:08;;;;;;;7.57;2.93;;;12.00;1.00;;;;;;4982843;28;21196;-79
2023/05/24 02:14:36;;;;;;;9.87;3.43;;;12.00;1.00;;;;;;4982830;28;21334;-79
2023/05/24 02:17:05;;;;;;;6.57;3.37;;;11.90;1.00;;;;;;4985781;28;20517;-79
2023/05/24 02:19:33;;;;;;;10.47;3.67;;;11.90;1.00;;;;;;4986416;28;20482;-78
2023/05/24 02:22:01;;;;;;;6.60;3.43;;;11.90;1.00;;;;;;4985611;28;20562;-79
2023/05/24 02:24:27;;;;;;;9.00;3.40;;;12.00;1.00;;;;;;4986553;28;21349;-79
2023/05/24 02:26:55;;;;;;;6.23;3.93;;;11.90;1.00;;;;;;4985413;28;20538;-79
2023/05/24 02:29:22;;;;;;;6.53;3.30;;;12.00;1.00;;;;;;4984837;28;20471;-80
2023/05/24 02:31:53;;;;;;;6.63;3.53;;;12.00;1.00;;;;;;4984607;28;20541;-79
2023/05/24 02:34:23;;;;;;;12.60;3.80;;;12.00;1.00;;;;;;4980560;28;20534;-80
2023/05/24 02:36:50;;;;;;;9.20;3.80;;;12.10;1.00;;;;;;4983448;28;20473;-79
2023/05/24 02:39:17;;;;;;;8.73;3.47;;;12.10;1.00;;;;;;4979819;28;20468;-79
2023/05/24 02:41:44;;;;;;;9.33;4.80;;;12.10;1.00;;;;;;4980503;28;20533;-79
2023/05/24 02:44:11;;;;;;;7.43;3.90;;;12.10;1.00;;;;;;4982157;28;20478;-79
2023/05/24 02:46:38;;;;;;;8.73;4.10;;;12.00;1.00;;;;;;4969388;28;20470;-79
2023/05/24 02:49:08;;;;;;;8.13;4.27;;;12.00;1.00;;;;;;4980266;28;20558;-78
2023/05/24 02:51:37;;;;;;;13.23;4.30;;;12.00;1.00;;;;;;4983940;28;20479;-78
2023/05/24 02:54:04;;;;;;;11.43;3.40;;;11.90;1.00;;;;;;4989960;28;20553;-78
2023/05/24 02:56:31;;;;;;;7.70;3.63;;;11.90;1.00;;;;;;4988422;28;20485;-78
2023/05/24 02:58:58;;;;;;;10.47;3.67;;;12.00;1.00;;;;;;4990504;28;20436;-78
2023/05/24 03:01:25;;;;;;;10.13;3.53;;;11.90;1.00;;;;;;4985006;28;20483;-76
2023/05/24 03:03:52;;;;;;;7.30;3.43;;;11.90;1.00;;;;;;4987963;28;20503;-78
2023/05/24 03:06:19;;;;;;;9.30;3.60;;;11.80;1.00;;;;;;4987293;28;20530;-79
2023/05/24 03:08:48;;;;;;;6.80;2.97;;;11.80;1.00;;;;;;4988393;28;21324;-78
2023/05/24 03:11:15;;;;;;;7.07;3.53;;;11.80;1.00;;;;;;4989130;28;20491;-79
2023/05/24 03:13:43;;;;;;;7.80;3.40;;;11.80;1.00;;;;;;4987729;28;20471;-79
2023/05/24 03:16:10;;;;;;;9.70;3.77;;;11.80;1.00;;;;;;4985955;28;21006;-78
2023/05/24 03:18:36;;;;;;;8.40;3.40;;;11.80;1.00;;;;;;4988446;28;20545;-79
2023/05/24 03:21:04;;;;;;;6.77;3.50;;;11.80;1.00;;;;;;4989847;28;20475;-80
2023/05/24 03:23:31;;;;;;;8.13;3.67;;;11.80;1.00;;;;;;4987640;28;20509;-79
2023/05/24 03:25:59;;;;;;;13.03;3.83;;;11.90;1.00;;;;;;4985410;28;20963;-79
2023/05/24 03:28:27;;;;;;;10.50;4.20;;;11.90;1.00;;;;;;4989249;28;20482;-78
2023/05/24 03:30:54;;;;;;;9.33;3.90;;;11.90;1.00;;;;;;4987285;28;20459;-79
2023/05/24 03:33:21;;;;;;;8.23;4.27;;;11.80;1.00;;;;;;4990074;28;20479;-80
2023/05/24 03:35:48;;;;;;;9.73;4.00;;;11.80;1.00;;;;;;4989719;28;20487;-79
2023/05/24 03:38:14;;;;;;;11.47;4.13;;;11.70;1.00;;;;;;4976848;28;20478;-80
2023/05/24 03:40:41;;;;;;;11.93;4.47;;;11.70;1.00;;;;;;4988490;28;20467;-80
2023/05/24 03:43:10;;;;;;;9.73;4.40;;;11.70;1.00;;;;;;4984725;28;20480;-79
2023/05/24 03:45:37;;;;;;;8.57;4.23;;;11.70;1.00;;;;;;4986531;28;20963;-80
2023/05/24 03:48:04;;;;;;;20.23;18.33;;;11.80;1.00;;;;;;4987464;28;20491;-79
2023/05/24 03:50:31;;;;;;;8.23;5.03;;;11.90;1.00;;;;;;4984791;28;20964;-78
2023/05/24 03:52:58;;;;;;;9.93;3.70;;;11.90;1.00;;;;;;4985675;28;20562;-79
2023/05/24 03:55:25;;;;;;;8.03;4.30;;;12.00;1.00;;;;;;4985625;28;20467;-76
2023/05/24 03:57:52;;;;;;;7.90;3.73;;;11.90;1.00;;;;;;4984670;28;20554;-79
2023/05/24 04:00:23;;;;;;;8.47;4.07;;;12.00;1.00;;;;;;4985809;28;20495;-79
2023/05/24 04:02:50;;;;;;;9.27;3.90;;;12.00;1.00;;;;;;4967840;28;20586;-78
2023/05/24 04:05:18;;;;;;;10.70;5.13;;;11.90;1.00;;;;;;4981817;28;20885;-78
2023/05/24 04:07:45;;;;;;;12.50;4.60;;;12.00;1.00;;;;;;4987263;28;20486;-79
2023/05/24 04:10:12;;;;;;;6.77;4.10;;;12.10;1.00;;;;;;4988484;28;20581;-79
2023/05/24 04:12:41;;;;;;;6.43;4.10;;;12.20;1.00;;;;;;4988527;28;20471;-79
2023/05/24 04:15:13;;;;;;;13.97;4.87;;;12.10;1.00;;;;;;4988950;28;21726;-79
2023/05/24 04:17:42;;;;;;;13.33;5.13;;;12.10;1.00;;;;;;4991176;28;20431;-81
2023/05/24 04:20:09;;;;;;;9.77;4.50;;;12.10;1.00;;;;;;4987156;28;20868;-81
2023/05/24 04:22:36;;;;;;;13.67;5.17;;;12.10;1.00;;;;;;4990232;28;20479;-78
2023/05/24 04:25:04;;;;;;;9.97;3.80;;;12.10;1.00;;;;;;4991120;28;20455;-79
2023/05/24 04:27:31;;;;;;;10.33;4.50;;;12.10;1.00;;;;;;4991612;28;20554;-79
2023/05/24 04:29:58;;;;;;;8.63;4.07;;;12.20;1.00;;;;;;4989585;28;20938;-78
2023/05/24 04:32:29;;;;;;;14.00;4.90;;;12.10;1.00;;;;;;4987670;28;20475;-79
2023/05/24 04:34:57;;;;;;;11.97;4.00;;;12.20;1.00;;;;;;4986806;28;20452;-79
2023/05/24 04:37:24;;;;;;;7.80;4.10;;;12.10;1.00;;;;;;4992326;28;20441;-79
2023/05/24 04:39:51;;;;;;;9.23;5.17;;;12.10;1.00;;;;;;4967886;28;20490;-80
2023/05/24 04:42:18;;;;;;;9.63;5.50;;;12.10;1.00;;;;;;4987627;28;20558;-80
2023/05/24 04:44:45;;;;;;;10.47;5.57;;;12.10;1.00;;;;;;4991285;28;20455;-78
2023/05/24 04:47:13;;;;;;;7.83;3.83;;;12.20;1.00;;;;;;4996055;28;20551;-81
2023/05/24 04:49:40;;;;;;;11.40;4.60;;;12.20;1.00;;;;;;4983155;28;20443;-80
2023/05/24 04:52:08;;;;;;;10.40;4.43;;;12.20;1.00;;;;;;4989152;28;20518;-80
2023/05/24 04:54:35;;;;;;;7.03;3.47;;;12.20;1.00;;;;;;5000172;28;20460;-81
2023/05/24 04:57:02;;;;;;;8.70;3.80;;;12.30;1.00;;;;;;4987783;28;20467;-81
2023/05/24 04:59:29;;;;;;;13.77;4.97;;;12.30;1.00;;;;;;4980814;28;20523;-79
2023/05/24 05:01:56;;;;;;;8.60;4.27;;;12.40;1.00;;;;;;4981572;28;20467;-80
2023/05/24 05:04:23;;;;;;;8.13;4.20;;;12.50;1.00;;;;;;4985853;28;20510;-80
2023/05/24 05:06:51;;;;;;;8.90;4.70;;;12.60;1.00;;;;;;4984240;28;20542;-79
2023/05/24 05:09:20;;;;;;;14.40;8.90;;;12.60;1.00;;;;;;4989346;28;20456;-81
2023/05/24 05:11:47;;;;;;;11.43;5.07;;;12.50;1.00;;;;;;4986291;28;20495;-81
2023/05/24 05:14:14;;;;;;;7.87;4.10;;;12.40;1.00;;;;;;4992546;28;20453;-81
2023/05/24 05:16:42;;;;;;;16.63;5.50;;;12.50;1.00;;;;;;4986647;28;20467;-80
2023/05/24 05:19:09;;;;;;;9.17;5.00;;;12.50;1.00;;;;;;4991983;28;20566;-79
2023/05/24 05:21:38;;;;;;;11.30;4.00;;;12.40;1.00;;;;;;4987941;28;21266;-80
2023/05/24 05:24:05;;;;;;;9.10;4.40;;;12.40;1.00;;;;;;4989275;28;20485;-79
2023/05/24 05:26:34;;;;;;;10.87;4.50;;;12.40;1.00;;;;;;4986849;28;20834;-81
2023/05/24 05:29:01;;;;;;;11.37;5.37;;;12.50;1.00;;;;;;4991533;28;21336;-79
2023/05/24 05:31:29;;;;;;;13.40;4.90;;;12.50;1.00;;;;;;4987654;28;21791;-80
2023/05/24 05:33:56;;;;;;;12.30;5.50;;;12.60;1.00;;;;;;4988700;28;20448;-80
2023/05/24 05:36:23;;;;;;;12.80;5.30;;;12.70;1.00;;;;;;4990618;28;20503;-81
2023/05/24 05:38:50;;;;;;;7.67;4.53;;;12.60;1.00;;;;;;4986019;28;23176;-79
2023/05/24 05:41:18;;;;;;;15.83;5.27;;;12.70;1.00;;;;;;4984252;28;20467;-80
2023/05/24 05:43:46;;;;;;;10.43;4.73;;;12.70;1.00;;;;;;4970808;28;20531;-79
2023/05/24 05:46:14;;;;;;;17.90;5.60;;;12.70;1.00;;;;;;4987682;28;20480;-81
2023/05/24 05:48:42;;;;;;;10.93;5.70;;;12.60;1.00;;;;;;4985889;28;20459;-77
2023/05/24 05:51:09;;;;;;;14.03;5.40;;;12.60;1.00;;;;;;4984158;28;20563;-79
2023/05/24 05:53:37;;;;;;;12.60;5.50;;;12.70;1.00;;;;;;4986896;28;20448;-77
2023/05/24 05:56:05;;;;;;;9.37;5.17;;;12.80;1.00;;;;;;4983432;28;20456;-75
2023/05/24 05:58:34;;;;;;;10.30;6.03;;;12.90;1.00;;;;;;4984812;28;21241;-75
2023/05/24 06:01:04;;;;;;;12.13;4.80;;;12.90;1.00;;;;;;4983901;28;20485;-76
2023/05/24 06:03:33;;;;;;;18.10;5.90;;;12.90;1.00;;;;;;4983638;28;20463;-75
2023/05/24 06:06:00;;;;;;;13.17;6.20;;;12.90;1.00;;;;;;4983658;28;22150;-75
2023/05/24 06:08:29;;;;;;;15.97;6.17;;;13.00;1.00;;;;;;4986533;28;20443;-77
2023/05/24 06:10:56;;;;;;;16.03;6.83;;;13.00;1.00;;;;;;4987734;28;21037;-76
2023/05/24 06:13:25;;;;;;;14.67;6.03;;;12.90;1.00;;;;;;4987253;28;20454;-76
2023/05/24 06:15:55;;;;;;;12.03;6.27;;;12.90;1.00;;;;;;4981285;28;20927;-74
2023/05/24 06:18:23;;;;;;;14.73;6.70;;;13.00;1.00;;;;;;4979328;28;20471;-76
2023/05/24 06:20:50;;;;;;;10.10;6.10;;;12.80;1.00;;;;;;4987275;28;20564;-75
2023/05/24 06:23:17;;;;;;;11.67;5.80;;;12.90;1.00;;;;;;4991623;28;20460;-76
2023/05/24 06:25:44;;;;;;;12.33;5.43;;;13.10;1.00;;;;;;4983870;28;20545;-76
2023/05/24 06:28:10;;;;;;;18.50;6.87;;;13.20;1.00;;;;;;4982313;28;21501;-77
2023/05/24 06:30:37;;;;;;;16.27;7.63;;;13.30;1.00;;;;;;4984300;28;20484;-76
2023/05/24 06:33:05;;;;;;;14.20;5.23;;;13.20;1.00;;;;;;4984199;28;20499;-74
2023/05/24 06:35:33;;;;;;;15.97;6.37;;;13.10;1.00;;;;;;4982970;28;20472;-74
2023/05/24 06:38:00;;;;;;;13.87;5.63;;;13.20;1.00;;;;;;4981108;28;20469;-78
2023/05/24 06:40:27;;;;;;;15.30;6.57;;;13.20;1.00;;;;;;4987781;28;20631;-75
2023/05/24 06:42:54;;;;;;;12.97;6.10;;;13.30;1.00;;;;;;4990969;28;20513;-74
2023/05/24 06:45:20;;;;;;;12.47;5.17;;;13.20;1.00;;;;;;4984434;28;20471;-73
2023/05/24 06:47:47;;;;;;;15.57;5.70;;;13.30;1.00;;;;;;4973782;28;20508;-75
2023/05/24 06:50:15;;;;;;;15.90;5.73;;;13.40;1.00;;;;;;4977948;28;20636;-74
2023/05/24 06:52:44;;;;;;;11.30;6.33;;;13.50;1.00;;;;;;4980512;28;20488;-77
2023/05/24 06:55:11;;;;;;;15.27;6.00;;;13.60;1.00;;;;;;4986247;28;20465;-77
2023/05/24 06:57:38;;;;;;;9.10;5.90;;;13.80;1.00;;;;;;4983272;28;20459;-76
2023/05/24 07:00:11;;;;;;;14.50;6.30;;;14.00;1.00;;;;;;4979824;28;20488;-76
2023/05/24 07:02:39;;;;;;;14.10;7.00;;;14.10;1.00;;;;;;4975823;28;20450;-78
2023/05/24 07:05:10;;;;;;;9.17;4.73;;;14.40;1.00;;;;;;4970321;28;20466;-74
2023/05/24 07:07:38;;;;;;;16.80;5.87;;;14.60;1.00;;;;;;4988994;28;20476;-74
2023/05/24 07:10:09;;;;;;;13.03;5.57;;;14.50;1.00;;;;;;4983821;28;20477;-74
2023/05/24 07:12:38;;;;;;;14.17;7.43;;;14.70;1.00;;;;;;4984679;28;20474;-74
2023/05/24 07:15:07;;;;;;;9.53;5.87;;;14.70;1.00;;;;;;4972576;28;21162;-75
2023/05/24 07:17:34;;;;;;;14.43;6.77;;;14.80;1.00;;;;;;4983748;28;21208;-74
2023/05/24 07:20:04;;;;;;;15.67;6.13;;;15.10;1.00;;;;;;4978387;28;20921;-74
2023/05/24 07:22:31;;;;;;;15.10;6.67;;;15.10;1.00;;;;;;4978786;28;20459;-74
2023/05/24 07:24:58;;;;;;;12.53;5.87;;;15.30;1.00;;;;;;4987357;28;20510;-74
2023/05/24 07:27:26;;;;;;;17.43;6.63;;;15.50;1.00;;;;;;4981091;28;20486;-73
2023/05/24 07:29:53;;;;;;;12.47;6.77;;;15.40;1.00;;;;;;4982411;28;21332;-73
2023/05/24 07:32:20;;;;;;;21.93;7.40;;;15.50;1.00;;;;;;4986987;28;20448;-74
2023/05/24 07:34:47;;;;;;;17.37;6.30;;;15.50;1.00;;;;;;4983252;28;20549;-74
2023/05/24 07:37:15;;;;;;;16.03;6.67;;;15.50;1.00;;;;;;4982265;28;20966;-74
2023/05/24 07:39:42;;;;;;;19.50;7.97;;;15.40;1.00;;;;;;4986772;28;20868;-73
2023/05/24 07:42:09;;;;;;;11.90;7.10;;;15.50;1.00;;;;;;4984068;28;20549;-74
2023/05/24 07:44:37;;;;;;;13.90;7.43;;;15.50;1.00;;;;;;4988173;28;20458;-75
2023/05/24 07:47:05;;;;;;;13.83;6.03;;;15.50;1.00;;;;;;4983436;28;20491;-75
2023/05/24 07:49:31;;;;;;;12.37;6.47;;;15.50;1.00;;;;;;4987361;28;20481;-75
2023/05/24 07:51:59;;;;;;;16.70;6.80;;;15.60;1.00;;;;;;4978488;28;21297;-78
2023/05/24 07:54:26;;;;;;;20.30;8.20;;;15.40;1.00;;;;;;4984187;28;20470;-79
2023/05/24 07:56:53;;;;;;;11.80;7.00;;;15.30;1.00;;;;;;4988399;28;20462;-78
2023/05/24 07:59:21;;;;;;;16.43;8.30;;;15.30;1.00;;;;;;4983539;28;20569;-79
2023/05/24 08:01:51;;;;;;;15.10;7.10;;;15.20;1.00;;;;;;4985614;28;20500;-78
2023/05/24 08:04:18;;;;;;;16.30;7.70;;;15.10;1.00;;;;;;4981582;28;20505;-74
2023/05/24 08:06:45;;;;;;;11.63;7.40;;;15.10;1.00;;;;;;4984514;28;20846;-74
2023/05/24 08:09:12;;;;;;;15.60;8.37;;;15.10;1.00;;;;;;4981737;28;20474;-74
2023/05/24 08:11:40;;;;;;;15.80;8.60;;;14.90;1.00;;;;;;4984080;28;21049;-75
2023/05/24 08:14:07;;;;;;;21.57;7.90;;;14.70;1.00;;;;;;4978507;28;20934;-75
2023/05/24 08:16:35;;;;;;;17.73;8.23;;;14.70;1.00;;;;;;4979193;28;20540;-75
2023/05/24 08:19:04;;;;;;;10.60;6.73;;;14.70;1.00;;;;;;4984388;28;20529;-76
2023/05/24 08:21:32;;;;;;;14.47;7.70;;;14.90;1.00;;;;;;4983987;28;21062;-76
2023/05/24 08:24:00;;;;;;;13.57;7.37;;;14.90;1.00;;;;;;4985971;28;20463;-77
2023/05/24 08:26:27;;;;;;;17.20;7.20;;;14.90;1.00;;;;;;4982293;28;20477;-82
2023/05/24 08:28:54;;;;;;;17.00;7.57;;;14.90;1.00;;;;;;4978472;28;20561;-78
2023/05/24 08:31:21;;;;;;;13.40;7.17;;;15.00;1.00;;;;;;4984344;28;20513;-79
2023/05/24 08:33:49;;;;;;;10.37;6.30;;;15.10;1.00;;;;;;4986656;28;20490;-77
2023/05/24 08:36:17;;;;;;;13.30;7.60;;;15.00;1.00;;;;;;4987079;28;20469;-78
2023/05/24 08:38:44;;;;;;;9.80;6.80;;;15.00;1.00;;;;;;4984887;28;20485;-78
2023/05/24 08:41:11;;;;;;;11.30;6.77;;;14.90;1.00;;;;;;4985109;28;20457;-76
2023/05/24 08:43:38;;;;;;;11.33;6.30;;;14.80;1.00;;;;;;4985589;28;20489;-75
2023/05/24 08:46:06;;;;;;;13.03;5.50;;;14.80;1.00;;;;;;4985270;28;20473;-77
2023/05/24 08:48:38;;;;;;;8.60;5.90;;;14.80;1.00;;;;;;4986601;28;20485;-76
2023/05/24 08:51:06;;;;;;;15.83;8.40;;;14.60;1.00;;;;;;4978080;28;21357;-78
2023/05/24 08:53:37;;;;;;;12.20;6.83;;;14.60;1.00;;;;;;4983680;28;20485;-76
2023/05/24 08:56:05;;;;;;;13.40;5.90;;;14.60;1.00;;;;;;4985491;28;20997;-78
2023/05/24 08:58:32;;;;;;;15.43;6.20;;;14.50;1.00;;;;;;4986864;28;20485;-77
2023/05/24 09:01:02;;;;;;;10.40;5.67;;;14.50;1.00;;;;;;4982599;28;20493;-79
2023/05/24 09:03:29;;;;;;;11.80;6.30;;;14.60;1.00;;;;;;4969174;28;20517;-76
2023/05/24 09:05:57;;;;;;;14.07;7.10;;;14.60;1.00;;;;;;4983229;28;20461;-78
2023/05/24 09:08:24;;;;;;;18.63;6.90;;;14.60;1.00;;;;;;4987222;28;20507;-77
2023/05/24 09:10:53;;;;;;;13.53;7.07;;;14.70;1.00;;;;;;4983658;28;20541;-76
2023/05/24 09:13:22;;;;;;;11.80;6.13;;;14.70;1.00;;;;;;4988553;28;20884;-76
2023/05/24 09:15:49;;;;;;;12.83;6.07;;;14.70;1.00;;;;;;4982282;28;20458;-75
2023/05/24 09:18:16;;;;;;;12.73;5.87;;;14.80;1.00;;;;;;4983459;28;20676;-76
2023/05/24 09:20:43;;;;;;;10.70;5.80;;;14.90;1.00;;;;;;4985195;28;20478;-75
2023/05/24 09:23:13;;;;;;;12.13;6.67;;;14.90;1.00;;;;;;4987243;28;20539;-78
2023/05/24 09:25:44;;;;;;;13.07;6.23;;;14.90;1.00;;;;;;4985971;28;20506;-78
2023/05/24 09:28:14;;;;;;;9.90;5.70;;;14.90;1.00;;;;;;4975853;28;20478;-76
2023/05/24 09:30:43;;;;;;;11.03;5.60;;;14.90;1.00;;;;;;4984978;28;21089;-75
2023/05/24 09:33:11;;;;;;;13.87;6.40;;;14.90;1.00;;;;;;4986695;28;20913;-76
2023/05/24 09:35:41;;;;;;;11.80;6.40;;;15.00;1.00;;;;;;4984621;28;20550;-75
2023/05/24 09:38:17;;;;;;;12.33;6.47;;;15.00;1.00;;;;;;4983991;28;20519;-79
2023/05/24 09:40:45;;;;;;;10.63;5.10;;;15.10;1.00;;;;;;4986355;28;20826;-76
2023/05/24 09:43:14;;;;;;;13.20;6.60;;;15.10;1.00;;;;;;4985957;28;20494;-77
2023/05/24 09:45:45;;;;;;;11.13;5.80;;;15.30;1.00;;;;;;4984699;28;20969;-75
2023/05/24 09:48:14;;;;;;;12.53;6.63;;;15.50;1.00;;;;;;4984514;28;20501;-77
2023/05/24 09:50:41;;;;;;;11.90;6.60;;;15.80;1.00;;;;;;4986575;28;21929;-76
2023/05/24 09:53:08;;;;;;;6.30;4.90;;;16.00;1.00;;;;;;4977340;28;20491;-74
2023/05/24 09:55:37;;;;;;;12.60;6.50;;;16.20;1.00;;;;;;4981871;28;21374;-74
2023/05/24 09:58:07;;;;;;;11.83;5.90;;;16.40;1.00;;;;;;4975927;28;20475;-74
2023/05/24 10:00:39;;;;;;;9.07;5.10;;;16.60;1.00;;;;;;4974557;28;20458;-74
2023/05/24 10:03:11;;;;;;;11.50;5.67;;;16.80;1.00;;;;;;4973618;28;20884;-74
2023/05/24 10:05:38;;;;;;;12.00;7.63;;;16.90;1.00;;;;;;4969200;28;20905;-76
2023/05/24 10:08:08;;;;;;;12.30;7.43;;;16.90;1.00;;;;;;4976549;28;20865;-76
2023/05/24 10:44:40;;;;;;;6.80;4.87;;;18.40;1.00;;;;;;4985756;28;20499;-76
2023/05/24 10:47:15;;;;;;;7.07;4.33;;;18.60;1.00;;;;;;4962740;28;20490;-77
2023/05/24 10:49:51;;;;;;;8.83;5.23;;;19.10;1.00;;;;;;4961206;28;20505;-76
2023/05/24 10:52:19;;;;;;;8.63;5.43;;;20.10;1.00;;;;;;4965913;28;20542;-77
2023/05/24 10:55:03;;;;;;;8.80;5.17;;;20.80;1.00;;;;;;4964841;28;22011;-77
2023/05/24 10:57:32;;;;;;;9.00;4.63;;;21.00;1.00;;;;;;4959905;28;20557;-78
2023/05/24 11:00:29;;;;;;;11.47;5.10;;;21.10;1.00;;;;;;4966641;28;20483;-78
2023/05/24 11:03:01;;;;;;;9.13;4.97;;;20.70;1.00;;;;;;4951194;28;20990;-77
2023/05/24 11:05:34;;;;;;;8.87;5.17;;;20.10;1.00;;;;;;4963937;28;20837;-76
2023/05/24 11:08:02;;;;;;;7.83;4.97;;;19.80;1.00;;;;;;4963546;28;21090;-76
2023/05/24 11:10:33;;;;;;;6.80;4.33;;;19.70;1.00;;;;;;4960386;28;20806;-73
2023/05/24 11:13:02;;;;;;;7.27;4.13;;;19.60;1.00;;;;;;4964029;28;20598;-76
2023/05/24 11:15:30;;;;;;;8.30;4.13;;;19.60;1.00;;;;;;4966687;28;20593;-74
2023/05/24 11:18:16;;;;;;;6.57;4.90;;;19.80;1.00;;;;;;4959024;28;20556;-75
2023/05/24 11:20:44;;;;;;;10.13;5.93;;;20.20;1.00;;;;;;4964009;28;22241;-74
2023/05/24 11:23:11;;;;;;;11.50;5.07;;;20.10;1.00;;;;;;4956465;28;20571;-76
2023/05/24 11:25:38;;;;;;;7.33;4.27;;;19.90;1.00;;;;;;4965586;28;20835;-73
2023/05/24 11:28:08;;;;;;;7.83;5.50;;;19.70;1.00;;;;;;4955538;28;20574;-75
2023/05/24 11:30:40;;;;;;;9.37;4.70;;;19.40;1.00;;;;;;4958853;28;20971;-76
2023/05/24 11:33:14;;;;;;;8.23;4.60;;;19.20;1.00;;;;;;4961138;28;20996;-74
2023/05/24 11:35:42;;;;;;;8.47;5.30;;;19.10;1.00;;;;;;4962353;28;20930;-74
2023/05/24 11:38:12;;;;;;;10.43;7.77;;;19.00;1.00;;;;;;4965801;28;20485;-75
2023/05/24 11:40:43;;;;;;;6.10;5.07;;;19.00;1.00;;;;;;4962110;28;20482;-75
2023/05/24 11:43:13;;;;;;;9.40;5.20;;;19.00;1.00;;;;;;4961546;28;20545;-76
2023/05/24 11:45:42;;;;;;;11.13;6.20;;;18.90;1.00;;;;;;4966904;28;20461;-76
2023/05/24 11:48:10;;;;;;;5.83;4.43;;;18.80;1.00;;;;;;4976837;28;20487;-80
2023/05/24 11:50:39;;;;;;;9.83;5.57;;;18.50;1.00;;;;;;4983943;28;20578;-77
2023/05/24 11:53:06;;;;;;;6.00;4.80;;;18.30;1.00;;;;;;4979235;28;20464;-77
2023/05/24 11:55:33;;;;;;;8.67;4.90;;;18.20;1.00;;;;;;4986568;28;20457;-73
2023/05/24 11:58:04;;;;;;;8.93;4.90;;;18.10;1.00;;;;;;4976486;28;20482;-74
2023/05/24 12:00:32;;;;;;;10.67;4.73;;;18.30;1.00;;;;;;4976377;28;20586;-75
2023/05/24 12:03:06;;;;;;;9.67;4.87;;;18.30;1.00;;;;;;4981755;28;20464;-74
2023/05/24 12:05:33;;;;;;;7.73;4.60;;;18.60;1.00;;;;;;4981810;28;20551;-75
2023/05/24 12:08:04;;;;;;;7.30;5.47;;;18.80;1.00;;;;;;4985777;28;20557;-77
2023/05/24 12:10:33;;;;;;;7.17;5.47;;;19.10;1.00;;;;;;4980309;28;20462;-77
2023/05/24 12:13:20;;;;;;;10.60;4.60;;;19.40;1.00;;;;;;4976237;28;20502;-77
2023/05/24 12:15:51;;;;;;;7.83;4.60;;;19.60;1.00;;;;;;4984466;28;20444;-78
2023/05/24 12:18:24;;;;;;;6.07;4.37;;;20.30;1.00;;;;;;4990763;28;20620;-74
2023/05/24 12:20:52;;;;;;;9.10;4.90;;;20.90;1.00;;;;;;4989968;28;20496;-74
2023/05/24 12:23:21;;;;;;;12.80;7.50;;;21.30;1.00;;;;;;4988823;28;20457;-74
2023/05/24 12:25:48;;;;;;;13.27;4.20;;;22.80;1.00;;;;;;4984591;28;20428;-75
2023/05/24 12:28:17;;;;;;;5.00;3.87;;;25.10;1.00;;;;;;4983030;28;20567;-75
2023/05/24 12:30:45;;;;;;;5.80;3.37;;;27.20;1.00;;;;;;4978103;28;20844;-75
2023/05/24 12:33:12;;;;;;;9.30;3.80;;;28.40;1.00;;;;;;4983913;28;20458;-75
2023/05/24 12:35:42;;;;;;;7.50;4.20;;;29.50;1.00;;;;;;4982246;28;20590;-75
2023/05/24 12:38:10;;;;;;;4.73;4.00;;;30.00;1.00;;;;;;4986962;28;20466;-75
2023/05/24 12:40:37;;;;;;;7.60;4.60;;;30.10;1.00;;;;;;4989270;28;20463;-74
2023/05/24 12:43:05;;;;;;;7.50;4.40;;;28.90;1.00;;;;;;4987297;28;20501;-75
2023/05/24 12:45:32;;;;;;;7.60;4.70;;;27.50;1.00;;;;;;4984682;28;20487;-77
2023/05/24 12:48:01;;;;;;;5.70;3.80;;;26.50;1.00;;;;;;4983181;28;21041;-76
2023/05/24 12:50:29;;;;;;;5.20;4.50;;;27.10;1.00;;;;;;4980127;28;20955;-81
2023/05/24 12:52:58;;;;;;;5.50;3.43;;;28.00;1.00;;;;;;4989517;28;21951;-75
2023/05/24 12:55:26;;;;;;;9.70;5.30;;;27.40;1.00;;;;;;4984201;28;20547;-74
2023/05/24 12:57:57;;;;;;;8.17;3.97;;;26.10;1.00;;;;;;4985460;28;20478;-75
2023/05/24 13:00:26;;;;;;;7.13;4.53;;;24.90;1.00;;;;;;4969362;28;20480;-75
2023/05/24 13:02:55;;;;;;;7.63;4.40;;;24.00;1.00;;;;;;4980441;28;20567;-76
2023/05/24 13:05:22;;;;;;;5.50;4.03;;;23.60;1.00;;;;;;4986215;28;20442;-76
2023/05/24 13:07:50;;;;;;;9.20;4.20;;;23.70;1.00;;;;;;4971877;28;20476;-77
2023/05/24 13:10:19;;;;;;;6.10;4.00;;;25.50;1.00;;;;;;4983693;28;20513;-76
2023/05/24 13:12:48;;;;;;;6.87;4.57;;;26.70;1.00;;;;;;4976433;28;20546;-77
2023/05/24 13:15:15;;;;;;;5.40;4.10;;;27.40;1.00;;;;;;4970776;28;20528;-76
2023/05/24 13:17:43;;;;;;;7.97;6.87;;;28.10;1.00;;;;;;4986840;28;20573;-74
2023/05/24 13:20:13;;;;;;;5.17;4.67;;;27.50;1.00;;;;;;4980778;28;20503;-74
2023/05/24 13:22:40;;;;;;;7.60;4.77;;;27.80;1.00;;;;;;4981592;28;20531;-77
2023/05/24 13:25:09;;;;;;;6.73;4.47;;;28.30;1.00;;;;;;4981912;28;20546;-76
2023/05/24 13:27:37;;;;;;;5.60;3.80;;;29.50;1.00;;;;;;4979735;28;20555;-76
2023/05/24 13:30:06;;;;;;;4.50;3.90;;;29.60;1.00;;;;;;4981698;28;20462;-75
2023/05/24 13:32:33;;;;;;;4.57;3.40;;;30.50;1.00;;;;;;4984689;28;20602;-74
2023/05/24 13:35:00;;;;;;;5.77;3.73;;;31.00;1.00;;;;;;4976679;28;20451;-77